createdAt,value
2023-02-18T00:01:27.830Z,99477.78
2023-02-18T00:03:55.352Z,99471.81
2023-02-18T00:06:31.655Z,99488.06
2023-02-18T00:09:02.475Z,99510.31
2023-02-18T00:11:34.307Z,99502.63
2023-02-18T00:14:03.146Z,99490.66
2023-02-18T00:16:31.113Z,99505.19
2023-02-18T00:19:00.826Z,99500.03
2023-02-18T00:21:28.948Z,99508.63
2023-02-18T00:23:56.722Z,99504.34
2023-02-18T00:26:24.171Z,99505.19
2023-02-18T00:28:52.285Z,99482.97
2023-02-18T00:31:26.894Z,99513.78
2023-02-18T00:33:55.189Z,99515.44
2023-02-18T00:36:23.553Z,99520.59
2023-02-18T00:38:53.308Z,99524.88
2023-02-18T00:41:21.954Z,99511.22
2023-02-18T00:43:49.346Z,99520.63
2023-02-18T00:46:16.996Z,99522.31
2023-02-18T00:48:44.571Z,99518.91
2023-02-18T00:51:12.684Z,99515.47
2023-02-18T00:53:40.919Z,99515.50
2023-02-18T00:56:10.436Z,99522.34
2023-02-18T00:58:38.392Z,99517.19
2023-02-18T01:01:07.798Z,99486.47
2023-02-18T01:03:36.984Z,99531.75
2023-02-18T01:06:06.053Z,99520.66
2023-02-18T01:08:34.805Z,99524.06
2023-02-18T01:11:02.947Z,99518.94
2023-02-18T01:13:30.696Z,99502.69
2023-02-18T01:15:58.325Z,99518.97
2023-02-18T01:18:26.375Z,99524.06
2023-02-18T01:20:53.986Z,99522.38
2023-02-18T01:23:22.578Z,99530.09
2023-02-18T01:25:50.040Z,99524.09
2023-02-18T01:28:19.223Z,99539.50
2023-02-18T01:30:46.694Z,99537.78
2023-02-18T01:33:14.097Z,99536.94
2023-02-18T01:35:41.782Z,99528.38
2023-02-18T01:38:09.848Z,99539.47
2023-02-18T01:40:43.992Z,99531.78
2023-02-18T01:43:12.879Z,99527.50
2023-02-18T01:45:52.250Z,99542.91
2023-02-18T01:48:29.689Z,99528.38
2023-02-18T01:51:13.234Z,99524.97
2023-02-18T01:53:50.108Z,99526.69
2023-02-18T01:56:24.867Z,99521.53
2023-02-18T01:58:54.879Z,99542.94
2023-02-18T02:01:22.404Z,99549.78
2023-02-18T02:03:49.772Z,99551.47
2023-02-18T02:06:20.230Z,99545.50
2023-02-18T02:08:54.539Z,99561.75
2023-02-18T02:11:41.811Z,99548.06
2023-02-18T02:14:40.433Z,99554.94
2023-02-18T02:17:39.547Z,99565.19
2023-02-18T02:20:26.497Z,99566.91
2023-02-18T02:23:08.829Z,99581.44
2023-02-18T02:25:42.017Z,99566.03
2023-02-18T02:28:11.995Z,99580.59
2023-02-18T02:31:03.983Z,99566.91
2023-02-18T02:34:00.137Z,99566.91
2023-02-18T02:36:54.530Z,99561.78
2023-02-18T02:39:47.691Z,99556.63
2023-02-18T02:42:24.439Z,99578.03
2023-02-18T02:45:21.790Z,99574.59
2023-02-18T02:48:01.417Z,99575.47
2023-02-18T02:51:19.182Z,99579.72
2023-02-18T02:53:46.505Z,99563.47
2023-02-18T02:56:20.108Z,99563.47
2023-02-18T02:58:55.979Z,99573.72
2023-02-18T03:01:35.715Z,99573.75
2023-02-18T03:04:24.396Z,99569.47
2023-02-18T03:07:08.291Z,99583.16
2023-02-18T03:10:02.548Z,99577.16
2023-02-18T03:13:37.282Z,99568.59
2023-02-18T03:16:04.505Z,99580.59
2023-02-18T03:18:40.649Z,99579.72
2023-02-18T03:21:24.393Z,99572.88
2023-02-18T03:24:01.868Z,99560.91
2023-02-18T03:26:32.236Z,99572.03
2023-02-18T03:29:02.722Z,99593.41
2023-02-18T03:31:32.636Z,99589.97
2023-02-18T03:34:10.180Z,99597.69
2023-02-18T03:36:39.294Z,99597.69
2023-02-18T03:39:16.982Z,99594.25
2023-02-18T03:41:45.229Z,99587.41
2023-02-18T03:44:13.897Z,99580.56
2023-02-18T03:46:43.915Z,99598.50
2023-02-18T03:49:13.401Z,99609.63
2023-02-18T03:51:42.284Z,99611.34
2023-02-18T03:54:10.392Z,99631.84
2023-02-18T03:56:38.000Z,99607.94
2023-02-18T03:59:05.288Z,99602.78
2023-02-18T04:01:32.734Z,99609.63
2023-02-18T04:04:00.208Z,99604.50
2023-02-18T04:06:27.683Z,99621.59
2023-02-18T04:08:55.198Z,99629.28
2023-02-18T04:11:22.587Z,99638.72
2023-02-18T04:13:50.023Z,99640.41
2023-02-18T04:16:17.388Z,99618.19
2023-02-18T04:18:44.791Z,99619.91
2023-02-18T04:21:12.067Z,99616.47
2023-02-18T04:23:39.288Z,99619.03
2023-02-18T04:26:06.916Z,99607.06
2023-02-18T04:28:34.341Z,99625.03
2023-02-18T04:31:01.815Z,99621.59
2023-02-18T04:33:29.400Z,99638.69
2023-02-18T04:35:56.662Z,99642.09
2023-02-18T04:38:24.262Z,99647.22
2023-02-18T04:40:51.663Z,99637.81
2023-02-18T04:43:19.184Z,99643.78
2023-02-18T04:45:46.684Z,99646.34
2023-02-18T04:48:14.055Z,99644.66
2023-02-18T04:50:41.568Z,99647.22
2023-02-18T04:53:08.953Z,99642.09
2023-02-18T04:55:36.416Z,99648.06
2023-02-18T04:58:03.715Z,99662.63
2023-02-18T05:00:31.036Z,99654.06
2023-02-18T05:02:58.387Z,99657.47
2023-02-18T05:05:25.706Z,99675.41
2023-02-18T05:07:53.036Z,99676.25
2023-02-18T05:10:20.362Z,99677.09
2023-02-18T05:12:47.629Z,99691.66
2023-02-18T05:15:15.652Z,99688.25
2023-02-18T05:17:43.000Z,99678.00
2023-02-18T05:20:10.730Z,99654.91
2023-02-18T05:22:38.785Z,99671.13
2023-02-18T05:25:06.812Z,99683.94
2023-02-18T05:27:34.241Z,99688.19
2023-02-18T05:30:01.580Z,99693.31
2023-02-18T05:32:28.969Z,99696.75
2023-02-18T05:34:56.166Z,99680.50
2023-02-18T05:37:23.554Z,99689.03
2023-02-18T05:39:50.950Z,99691.59
2023-02-18T05:42:18.197Z,99702.72
2023-02-18T05:44:45.455Z,99720.63
2023-02-18T05:47:13.523Z,99710.38
2023-02-18T05:49:42.663Z,99722.38
2023-02-18T05:52:11.180Z,99714.69
2023-02-18T05:54:38.999Z,99712.13
2023-02-18T05:57:06.798Z,99718.09
2023-02-18T05:59:34.472Z,99718.94
2023-02-18T06:02:01.890Z,99735.19
2023-02-18T06:04:29.503Z,99720.63
2023-02-18T06:06:56.932Z,99742.03
2023-02-18T06:09:24.216Z,99738.59
2023-02-18T06:11:51.542Z,99742.03
2023-02-18T06:14:19.099Z,99746.31
2023-02-18T06:16:46.402Z,99734.34
2023-02-18T06:19:13.812Z,99734.31
2023-02-18T06:21:41.268Z,99742.88
2023-02-18T06:24:08.823Z,99756.53
2023-02-18T06:26:36.269Z,99765.09
2023-02-18T06:29:03.826Z,99753.13
2023-02-18T06:31:31.440Z,99761.69
2023-02-18T06:33:58.909Z,99761.66
2023-02-18T06:36:26.204Z,99773.63
2023-02-18T06:38:56.439Z,99768.50
2023-02-18T06:41:24.018Z,99773.63
2023-02-18T06:43:51.715Z,99762.50
2023-02-18T06:46:19.291Z,99772.78
2023-02-18T06:48:46.922Z,99770.19
2023-02-18T06:51:14.777Z,99774.47
2023-02-18T06:53:44.006Z,99767.63
2023-02-18T06:56:12.179Z,99779.63
2023-02-18T06:58:39.663Z,99765.97
2023-02-18T07:01:07.215Z,99771.97
2023-02-18T07:03:34.747Z,99768.53
2023-02-18T07:06:02.143Z,99785.66
2023-02-18T07:08:31.187Z,99778.81
2023-02-18T07:10:58.590Z,99778.81
2023-02-18T07:13:25.838Z,99790.81
2023-02-18T07:15:53.150Z,99784.00
2023-02-18T07:18:20.638Z,99780.56
2023-02-18T07:20:48.044Z,99778.88
2023-02-18T07:23:15.299Z,99758.38
2023-02-18T07:25:42.687Z,99765.19
2023-02-18T07:28:09.938Z,99767.78
2023-02-18T07:30:37.278Z,99753.22
2023-02-18T07:33:04.778Z,99766.88
2023-02-18T07:35:32.259Z,99773.72
2023-02-18T07:37:59.534Z,99766.88
2023-02-18T07:40:26.952Z,99768.59
2023-02-18T07:42:54.352Z,99773.75
2023-02-18T07:45:21.673Z,99777.19
2023-02-18T07:47:49.521Z,99773.78
2023-02-18T07:50:17.342Z,99760.97
2023-02-18T07:52:44.999Z,99763.56
2023-02-18T07:55:12.936Z,99771.25
2023-02-18T07:57:57.576Z,99760.13
2023-02-18T08:00:25.376Z,99729.28
2023-02-18T08:02:53.282Z,99753.31
2023-02-18T08:05:21.436Z,99780.72
2023-02-18T08:07:49.237Z,99789.28
2023-02-18T08:10:17.498Z,99773.03
2023-02-18T08:12:45.419Z,99771.31
2023-02-18T08:15:14.213Z,99777.31
2023-02-18T08:17:41.952Z,99771.34
2023-02-18T08:20:11.943Z,99767.06
2023-02-18T08:22:39.924Z,99770.47
2023-02-18T08:25:09.153Z,99775.63
2023-02-18T08:27:40.574Z,99775.63
2023-02-18T08:30:09.524Z,99773.91
2023-02-18T08:32:37.909Z,99779.03
2023-02-18T08:35:08.095Z,99777.34
2023-02-18T08:37:52.520Z,99792.72
2023-02-18T08:40:21.972Z,99780.72
2023-02-18T08:42:50.235Z,99777.34
2023-02-18T08:45:18.414Z,99794.44
2023-02-18T08:48:19.489Z,99779.03
2023-02-18T08:50:35.275Z,99788.44
2023-02-18T08:53:04.104Z,99791.00
2023-02-18T08:55:34.129Z,99782.47
2023-02-18T08:58:02.463Z,99791.00
2023-02-18T09:00:30.432Z,99791.03
2023-02-18T09:02:58.344Z,99801.31
2023-02-18T09:05:26.487Z,99797.91
2023-02-18T09:07:54.353Z,99798.78
2023-02-18T09:10:22.238Z,99803.94
2023-02-18T09:12:50.144Z,99804.78
2023-02-18T09:15:18.067Z,99803.06
2023-02-18T09:17:46.360Z,99797.91
2023-02-18T09:20:14.826Z,99812.47
2023-02-18T09:22:42.799Z,99801.34
2023-02-18T09:25:10.651Z,99799.63
2023-02-18T09:27:38.720Z,99808.22
2023-02-18T09:30:07.403Z,99807.38
2023-02-18T09:32:35.655Z,99818.50
2023-02-18T09:35:06.038Z,99827.03
2023-02-18T09:37:33.868Z,99824.47
2023-02-18T09:40:01.830Z,99801.41
2023-02-18T09:42:33.798Z,99796.25
2023-02-18T09:45:07.688Z,99799.69
2023-02-18T09:47:41.836Z,99791.09
2023-02-18T09:50:21.220Z,99787.69
2023-02-18T09:52:49.446Z,99789.38
2023-02-18T09:55:29.155Z,99786.81
2023-02-18T09:58:18.952Z,99784.25
2023-02-18T10:00:53.199Z,99794.50
2023-02-18T10:03:24.538Z,99797.91
2023-02-18T10:05:59.490Z,99779.91
2023-02-18T10:08:35.879Z,99799.63
2023-02-18T10:11:04.343Z,99779.94
2023-02-18T10:13:34.652Z,99784.19
2023-02-18T10:16:04.707Z,99795.34
2023-02-18T10:18:36.329Z,99792.78
2023-02-18T10:21:16.484Z,99784.22
2023-02-18T10:24:01.353Z,99794.50
2023-02-18T10:26:34.081Z,99779.09
2023-02-18T10:29:01.853Z,99768.81
2023-02-18T10:31:38.206Z,99782.53
2023-02-18T10:34:25.041Z,99773.94
2023-02-18T10:37:01.661Z,99763.66
2023-02-18T10:39:47.330Z,99770.50
2023-02-18T10:42:44.071Z,99761.88
2023-02-18T10:45:41.824Z,99753.31
2023-02-18T10:48:41.167Z,99749.88
2023-02-18T10:51:40.551Z,99748.22
2023-02-18T10:54:09.150Z,99731.06
2023-02-18T10:56:50.890Z,99746.47
2023-02-18T10:59:24.234Z,99748.22
2023-02-18T11:02:03.690Z,99746.50
2023-02-18T11:04:45.264Z,99746.50
2023-02-18T11:07:35.452Z,99757.66
2023-02-18T11:10:18.272Z,99747.41
2023-02-18T11:12:49.818Z,99737.97
2023-02-18T11:15:24.047Z,99743.09
2023-02-18T11:17:55.048Z,99732.84
2023-02-18T11:20:35.594Z,99730.25
2023-02-18T11:23:08.337Z,99725.13
2023-02-18T11:25:37.984Z,99731.09
2023-02-18T11:28:17.039Z,99720.00
2023-02-18T11:30:48.569Z,99705.41
2023-02-18T11:33:18.951Z,99715.69
2023-02-18T11:35:56.560Z,99695.13
2023-02-18T11:38:29.172Z,99691.63
2023-02-18T11:41:04.293Z,99681.38
2023-02-18T11:43:31.856Z,99690.78
2023-02-18T11:46:23.086Z,99680.44
2023-02-18T11:48:51.675Z,99671.06
2023-02-18T11:51:28.373Z,99679.59
2023-02-18T11:54:00.528Z,99668.47
2023-02-18T11:56:34.221Z,99666.75
2023-02-18T11:59:03.493Z,99655.59
2023-02-18T12:01:47.124Z,99640.22
2023-02-18T12:04:19.253Z,99650.44
2023-02-18T12:06:55.583Z,99652.16
2023-02-18T12:09:32.048Z,99641.00
2023-02-18T12:12:03.524Z,99655.56
2023-02-18T12:14:31.083Z,99642.69
2023-02-18T12:17:15.085Z,99650.38
2023-02-18T12:20:19.562Z,99651.22
2023-02-18T12:22:54.260Z,99650.41
2023-02-18T12:25:26.625Z,99639.22
2023-02-18T12:28:28.959Z,99641.81
2023-02-18T12:31:13.879Z,99641.84
2023-02-18T12:33:52.508Z,99630.69
2023-02-18T12:36:48.248Z,99626.44
2023-02-18T12:39:15.503Z,99619.56
2023-02-18T12:42:21.257Z,99623.00
2023-02-18T12:45:22.798Z,99617.88
2023-02-18T12:48:11.685Z,99613.59
2023-02-18T12:51:11.702Z,99619.56
2023-02-18T12:53:50.631Z,99614.44
2023-02-18T12:56:29.617Z,99611.84
2023-02-18T12:59:11.357Z,99599.00
2023-02-18T13:02:05.119Z,99587.00
2023-02-18T13:05:14.423Z,99575.88
2023-02-18T13:08:01.786Z,99573.31
2023-02-18T13:10:43.456Z,99571.59
2023-02-18T13:13:12.833Z,99582.75
2023-02-18T13:15:45.959Z,99577.63
2023-02-18T13:18:19.119Z,99581.09
2023-02-18T13:20:52.425Z,99592.25
2023-02-18T13:23:26.163Z,99585.41
2023-02-18T13:26:01.205Z,99588.91
2023-02-18T13:28:40.647Z,99597.53
2023-02-18T13:31:28.456Z,99602.69
2023-02-18T13:34:24.878Z,99611.31
2023-02-18T13:37:29.680Z,99611.34
2023-02-18T13:39:59.238Z,99590.81
2023-02-18T13:42:33.400Z,99601.97
2023-02-18T13:45:00.790Z,99599.38
2023-02-18T13:47:50.089Z,99597.69
2023-02-18T13:50:31.582Z,99596.81
2023-02-18T13:53:07.951Z,99601.13
2023-02-18T13:55:57.215Z,99591.72
2023-02-18T13:58:42.845Z,99594.28
2023-02-18T14:01:12.981Z,99593.41
2023-02-18T14:03:43.626Z,99595.97
2023-02-18T14:06:37.433Z,99585.69
2023-02-18T14:09:26.038Z,99587.44
2023-02-18T14:12:16.158Z,99583.13
2023-02-18T14:14:44.051Z,99581.41
2023-02-18T14:17:20.814Z,99583.97
2023-02-18T14:19:56.002Z,99583.97
2023-02-18T14:22:32.767Z,99579.69
2023-02-18T14:25:04.943Z,99580.53
2023-02-18T14:27:32.368Z,99571.16
2023-02-18T14:30:07.566Z,99572.00
2023-02-18T14:32:35.205Z,99570.28
2023-02-18T14:35:20.187Z,99566.84
2023-02-18T14:38:06.493Z,99567.72
2023-02-18T14:40:59.114Z,99570.28
2023-02-18T14:43:38.880Z,99571.97
2023-02-18T14:46:20.166Z,99585.66
2023-02-18T14:48:53.594Z,99583.09
2023-02-18T14:51:24.108Z,99592.47
2023-02-18T14:53:52.782Z,99592.47
2023-02-18T14:56:22.390Z,99583.91
2023-02-18T14:58:55.946Z,99589.03
2023-02-18T15:01:32.346Z,99592.44
2023-02-18T15:04:01.676Z,99594.16
2023-02-18T15:06:30.479Z,99582.16
2023-02-18T15:08:59.039Z,99585.53
2023-02-18T15:11:50.914Z,99589.81
2023-02-18T15:14:35.023Z,99582.06
2023-02-18T15:17:03.706Z,99585.50
2023-02-18T15:19:40.624Z,99592.28
2023-02-18T15:22:16.445Z,99587.09
2023-02-18T15:24:44.488Z,99576.88
2023-02-18T15:27:20.456Z,99573.44
2023-02-18T15:29:53.857Z,99552.09
2023-02-18T15:32:29.761Z,99554.63
2023-02-18T15:35:02.146Z,99554.63
2023-02-18T15:37:31.231Z,99557.19
2023-02-18T15:39:58.914Z,99551.16
2023-02-18T15:42:30.751Z,99558.03
2023-02-18T15:44:59.974Z,99556.34
2023-02-18T15:47:27.612Z,99559.72
2023-02-18T15:49:59.099Z,99558.84
2023-02-18T15:52:32.878Z,99551.16
2023-02-18T15:55:12.981Z,99563.13
2023-02-18T15:57:40.883Z,99565.66
2023-02-18T16:00:21.503Z,99560.53
2023-02-18T16:03:13.943Z,99570.78
2023-02-18T16:05:43.281Z,99575.06
2023-02-18T16:08:18.526Z,99574.19
2023-02-18T16:10:50.866Z,99556.25
2023-02-18T16:13:18.716Z,99566.50
2023-02-18T16:15:49.023Z,99558.81
2023-02-18T16:18:38.962Z,99556.25
2023-02-18T16:21:18.531Z,99556.25
2023-02-18T16:23:59.908Z,99547.69
2023-02-18T16:26:38.193Z,99556.25
2023-02-18T16:29:14.247Z,99546.00
2023-02-18T16:31:42.217Z,99546.00
2023-02-18T16:34:09.854Z,99546.00
2023-02-18T16:36:37.524Z,99548.56
2023-02-18T16:39:05.435Z,99540.88
2023-02-18T16:41:33.400Z,99546.00
2023-02-18T16:44:01.162Z,99543.41
2023-02-18T16:46:30.800Z,99537.44
2023-02-18T16:48:59.469Z,99554.56
2023-02-18T16:51:35.532Z,99544.31
2023-02-18T16:54:03.357Z,99546.00
2023-02-18T16:56:34.381Z,99566.47
2023-02-18T16:59:02.523Z,99562.25
2023-02-18T17:01:39.019Z,99576.75
2023-02-18T17:04:07.168Z,99583.59
2023-02-18T17:06:35.741Z,99583.53
2023-02-18T17:09:13.523Z,99591.25
2023-02-18T17:11:42.973Z,99588.66
2023-02-18T17:14:15.402Z,99607.44
2023-02-18T17:16:43.293Z,99610.88
2023-02-18T17:19:11.945Z,99609.13
2023-02-18T17:21:40.122Z,99609.94
2023-02-18T17:24:13.911Z,99624.44
2023-02-18T17:26:42.382Z,99631.25
2023-02-18T17:29:10.713Z,99627.75
2023-02-18T17:31:44.875Z,99634.59
2023-02-18T17:34:25.570Z,99638.81
2023-02-18T17:36:53.450Z,99637.09
2023-02-18T17:39:21.827Z,99643.06
2023-02-18T17:41:49.913Z,99656.72
2023-02-18T17:44:22.982Z,99641.31
2023-02-18T17:46:51.052Z,99661.84
2023-02-18T17:49:19.334Z,99662.69
2023-02-18T17:51:47.466Z,99658.38
2023-02-18T17:54:19.002Z,99660.06
2023-02-18T17:56:47.773Z,99667.75
2023-02-18T17:59:15.751Z,99677.09
2023-02-18T18:01:44.481Z,99683.94
2023-02-18T18:04:17.858Z,99683.91
2023-02-18T18:06:50.325Z,99681.34
2023-02-18T18:09:17.985Z,99695.81
2023-02-18T18:11:46.093Z,99692.38
2023-02-18T18:14:15.799Z,99690.69
2023-02-18T18:16:44.242Z,99688.94
2023-02-18T18:19:12.322Z,99688.94
2023-02-18T18:21:41.070Z,99691.41
2023-02-18T18:24:12.847Z,99698.25
2023-02-18T18:26:40.783Z,99699.13
2023-02-18T18:29:08.819Z,99688.91
2023-02-18T18:31:37.816Z,99654.56
2023-02-18T18:34:05.774Z,99692.25
2023-02-18T18:36:33.953Z,99695.66
2023-02-18T18:39:01.842Z,99701.69
2023-02-18T18:41:30.055Z,99702.56
2023-02-18T18:43:57.875Z,99702.44
2023-02-18T18:46:26.117Z,99712.72
2023-02-18T18:48:54.158Z,99716.13
2023-02-18T18:51:33.520Z,99699.06
2023-02-18T18:54:01.817Z,99715.31
2023-02-18T18:56:30.001Z,99713.56
2023-02-18T18:58:58.310Z,99710.97
2023-02-18T19:01:27.897Z,99719.53
2023-02-18T19:03:56.826Z,99703.97
2023-02-18T19:06:24.714Z,99715.13
2023-02-18T19:08:52.772Z,99724.47
2023-02-18T19:11:20.879Z,99727.88
2023-02-18T19:13:49.211Z,99742.34
2023-02-18T19:16:23.046Z,99745.72
2023-02-18T19:18:51.430Z,99738.91
2023-02-18T19:21:19.449Z,99744.91
2023-02-18T19:23:47.270Z,99741.44
2023-02-18T19:26:17.621Z,99741.41
2023-02-18T19:28:46.623Z,99755.84
2023-02-18T19:31:15.883Z,99754.13
2023-02-18T19:33:45.939Z,99768.59
2023-02-18T19:36:15.208Z,99774.56
2023-02-18T19:38:42.947Z,99777.16
2023-02-18T19:41:13.601Z,99773.69
2023-02-18T19:43:43.223Z,99787.34
2023-02-18T19:46:14.987Z,99797.53
2023-02-18T19:48:43.113Z,99788.97
2023-02-18T19:51:12.215Z,99804.34
2023-02-18T19:53:41.308Z,99805.22
2023-02-18T19:56:10.276Z,99815.44
2023-02-18T19:58:40.757Z,99812.91
2023-02-18T20:01:12.559Z,99812.94
2023-02-18T20:03:40.666Z,99813.75
2023-02-18T20:06:15.807Z,99816.28
2023-02-18T20:08:43.886Z,99811.09
2023-02-18T20:11:12.265Z,99821.38
2023-02-18T20:13:40.732Z,99819.72
2023-02-18T20:16:10.720Z,99809.47
2023-02-18T20:18:38.631Z,99812.81
2023-02-18T20:21:06.436Z,99825.56
2023-02-18T20:23:34.164Z,99833.28
2023-02-18T20:26:04.743Z,99828.16
2023-02-18T20:28:32.644Z,99837.44
2023-02-18T20:31:12.496Z,99848.44
2023-02-18T20:33:42.814Z,99860.34
2023-02-18T20:36:11.533Z,99850.03
2023-02-18T20:38:40.154Z,99862.88
2023-02-18T20:41:12.166Z,99875.59
2023-02-18T20:43:40.891Z,99882.47
2023-02-18T20:46:12.941Z,99880.78
2023-02-18T20:48:41.124Z,99879.84
2023-02-18T20:51:12.437Z,99878.22
2023-02-18T20:53:42.318Z,99883.41
2023-02-18T20:56:11.212Z,99889.31
2023-02-18T20:58:39.845Z,99877.38
2023-02-18T21:01:16.520Z,99886.81
2023-02-18T21:03:47.938Z,99889.38
2023-02-18T21:06:19.761Z,99900.56
2023-02-18T21:08:50.774Z,99898.00
2023-02-18T21:11:21.107Z,99908.22
2023-02-18T21:13:50.808Z,99908.16
2023-02-18T21:16:22.202Z,99918.41
2023-02-18T21:18:51.297Z,99906.31
2023-02-18T21:21:25.909Z,99926.88
2023-02-18T21:23:53.966Z,99927.69
2023-02-18T21:26:25.000Z,99923.41
2023-02-18T21:28:56.264Z,99917.47
2023-02-18T21:31:33.437Z,99906.41
2023-02-18T21:34:02.421Z,99920.84
2023-02-18T21:36:32.119Z,99906.41
2023-02-18T21:39:04.739Z,99905.50
2023-02-18T21:41:34.989Z,99907.16
2023-02-18T21:44:03.254Z,99918.28
2023-02-18T21:46:33.688Z,99919.91
2023-02-18T21:49:07.496Z,99923.31
2023-02-18T21:51:59.631Z,99938.69
2023-02-18T21:54:40.256Z,99943.84
2023-02-18T21:57:12.839Z,99947.16
2023-02-18T21:59:41.969Z,99933.56
2023-02-18T22:02:17.958Z,99933.66
2023-02-18T22:04:46.506Z,99949.03
2023-02-18T22:07:14.949Z,99942.25
2023-02-18T22:09:43.141Z,99943.88
2023-02-18T22:12:12.347Z,99932.69
2023-02-18T22:14:40.585Z,99948.94
2023-02-18T22:17:09.748Z,99947.19
2023-02-18T22:19:37.501Z,99945.53
2023-02-18T22:22:05.816Z,99943.06
2023-02-18T22:24:33.921Z,99945.59
2023-02-18T22:27:02.281Z,99947.31
2023-02-18T22:29:32.440Z,99947.31
2023-02-18T22:32:00.426Z,99959.13
2023-02-18T22:34:28.039Z,99961.69
2023-02-18T22:36:55.312Z,99957.53
2023-02-18T22:39:22.692Z,99960.91
2023-02-18T22:41:50.025Z,99959.22
2023-02-18T22:44:18.351Z,99960.03
2023-02-18T22:46:45.931Z,99957.53
2023-02-18T22:49:13.614Z,99955.00
2023-02-18T22:51:43.667Z,99971.13
2023-02-18T22:54:14.739Z,99960.06
2023-02-18T22:56:43.065Z,99962.69
2023-02-18T22:59:12.097Z,99955.84
2023-02-18T23:01:42.059Z,99950.75
2023-02-18T23:04:12.311Z,99959.25
2023-02-18T23:06:40.961Z,99957.53
2023-02-18T23:09:11.466Z,99953.28
2023-02-18T23:11:39.281Z,99952.38
2023-02-18T23:14:18.857Z,99967.75
2023-02-18T23:17:06.604Z,99963.50
2023-02-18T23:19:35.392Z,99954.09
2023-02-18T23:22:03.697Z,99962.69
2023-02-18T23:24:40.618Z,99960.16
2023-02-18T23:27:10.547Z,99952.53
2023-02-18T23:29:38.715Z,99955.97
2023-02-18T23:32:07.033Z,99959.38
2023-02-18T23:34:35.281Z,99961.91
2023-02-18T23:37:02.710Z,99959.34
2023-02-18T23:39:30.161Z,99951.66
2023-02-18T23:41:57.762Z,99964.44
2023-02-18T23:44:26.699Z,99969.56
2023-02-18T23:46:54.401Z,99952.47
2023-02-18T23:49:24.598Z,99971.34
2023-02-18T23:51:53.212Z,99964.50
2023-02-18T23:54:21.332Z,99971.31
2023-02-18T23:56:49.520Z,99974.72
2023-02-18T23:59:16.978Z,99976.47
